createdAt,value
2023-02-23T16:36:19.913Z,20.98
2023-02-23T16:40:19.484Z,20.95
2023-02-23T16:44:19.386Z,20.87
2023-02-23T16:48:19.341Z,20.80
2023-02-23T16:52:19.222Z,20.79
2023-02-23T16:56:19.179Z,20.78
2023-02-23T17:00:19.022Z,20.81
2023-02-23T17:04:18.988Z,20.81
2023-02-23T17:08:18.972Z,20.79
2023-02-23T17:12:18.852Z,20.81
2023-02-23T17:16:19.285Z,20.81
2023-02-23T17:20:18.667Z,20.79
2023-02-23T17:24:18.559Z,20.79
2023-02-23T17:28:18.474Z,20.82
2023-02-23T17:32:18.449Z,20.83
2023-02-23T17:36:18.283Z,20.82
2023-02-23T17:40:18.084Z,20.81
2023-02-23T17:44:18.115Z,20.82
2023-02-23T17:48:18.275Z,20.82
2023-02-23T17:52:18.130Z,20.81
2023-02-23T17:56:18.116Z,20.81
2023-02-23T18:00:18.046Z,20.79
2023-02-23T18:04:17.896Z,20.64
2023-02-23T18:08:17.798Z,20.51
2023-02-23T18:12:17.723Z,20.44
2023-02-23T18:16:17.705Z,20.40
2023-02-23T18:20:17.583Z,20.38
2023-02-23T18:24:17.490Z,20.37
2023-02-23T18:28:17.451Z,20.35
2023-02-23T18:32:17.619Z,20.33
2023-02-23T18:36:17.289Z,20.32
2023-02-23T18:40:17.176Z,20.30
2023-02-23T18:44:18.812Z,20.28
2023-02-23T18:48:17.153Z,20.28
2023-02-23T18:52:17.011Z,20.28
2023-02-23T18:56:17.098Z,20.28
2023-02-23T19:00:17.254Z,20.27
2023-02-23T19:04:17.375Z,20.27
2023-02-23T19:08:17.508Z,20.26
2023-02-23T19:12:17.628Z,20.26
2023-02-23T19:16:17.754Z,20.26
2023-02-23T19:20:17.878Z,20.26
2023-02-23T19:24:17.956Z,20.24
2023-02-23T19:28:18.088Z,20.24
2023-02-23T19:32:18.490Z,20.24
2023-02-23T19:36:18.385Z,20.23
2023-02-23T19:40:18.532Z,20.23
2023-02-23T19:44:18.651Z,20.23
2023-02-23T19:48:18.807Z,20.23
2023-02-23T19:52:19.024Z,20.22
2023-02-23T19:56:19.177Z,20.22
2023-02-23T20:00:19.348Z,20.21
2023-02-23T20:04:19.474Z,20.22
2023-02-23T20:08:19.687Z,20.21
2023-02-23T20:12:19.800Z,20.20
2023-02-23T20:16:20.037Z,20.19
2023-02-23T20:20:20.127Z,20.18
2023-02-23T20:24:20.067Z,20.18
2023-02-23T20:28:20.087Z,20.18
2023-02-23T20:32:19.997Z,20.17
2023-02-23T20:36:19.861Z,20.17
2023-02-23T20:40:19.760Z,20.16
2023-02-23T20:44:19.688Z,20.16
2023-02-23T20:48:19.615Z,20.15
2023-02-23T20:52:19.526Z,20.15
2023-02-23T20:56:19.462Z,20.14
2023-02-23T21:00:19.357Z,20.14
2023-02-23T21:04:19.669Z,20.14
2023-02-23T21:08:19.458Z,20.13
2023-02-23T21:12:19.420Z,20.12
2023-02-23T21:16:19.391Z,20.12
2023-02-23T21:20:20.665Z,20.12
2023-02-23T21:24:19.320Z,20.12
2023-02-23T21:28:19.093Z,20.11
2023-02-23T21:32:19.219Z,20.11
2023-02-23T21:36:19.036Z,20.10
2023-02-23T21:40:18.957Z,20.10
2023-02-23T21:44:18.847Z,20.10
2023-02-23T21:48:18.779Z,20.09
2023-02-23T21:52:18.775Z,20.09
2023-02-23T21:56:18.669Z,20.08
2023-02-23T22:00:18.564Z,20.07
2023-02-23T22:04:18.491Z,20.07
2023-02-23T22:08:18.444Z,20.07
2023-02-23T22:12:18.381Z,20.06
2023-02-23T22:16:18.339Z,20.06
2023-02-23T22:20:18.275Z,20.05
2023-02-23T22:24:18.246Z,20.06
2023-02-23T22:28:18.102Z,20.05
2023-02-23T22:32:18.167Z,20.04
2023-02-23T22:36:17.957Z,20.05
2023-02-23T22:40:17.849Z,20.04
2023-02-23T22:44:17.816Z,20.04
2023-02-23T22:48:17.707Z,20.03
2023-02-23T22:52:17.605Z,20.04
2023-02-23T22:56:17.504Z,20.03
2023-02-23T23:00:17.632Z,20.02
2023-02-23T23:04:17.816Z,20.02
2023-02-23T23:08:17.897Z,20.02
2023-02-23T23:12:18.051Z,20.01
2023-02-23T23:16:30.562Z,20.00
2023-02-23T23:20:19.212Z,20.01
2023-02-23T23:24:17.983Z,20.00
2023-02-23T23:28:17.941Z,20.00
2023-02-23T23:32:18.024Z,19.99
2023-02-23T23:36:17.948Z,19.99
2023-02-23T23:40:17.868Z,19.99
2023-02-23T23:44:17.760Z,19.99
2023-02-23T23:48:17.840Z,19.98
2023-02-23T23:52:17.994Z,19.99
2023-02-23T23:56:17.931Z,19.98
